No particular awareness of the weather is required.    There are no Weather-warnings


Meteo18 Weather Cam more information Meteo18 Weather Cam


Thunder radar more information blitzortung!


Rain radar more information rain snow radar


Visit our other weather sites:

Template documentation
and downloads

And another site



Weather Underground History page Text

Daily Summary for August 7, 2016 Units:  Metric    English   Both
« Previous Day
Next Day »
Daily Weekly Monthly Yearly Custom
  High: Low: Average:
Temperature: 29.3 °C 11.8 °C 21.6 °C
Dew Point: 15.4 °C 10.0 °C 12.6 °C
Humidity: 89 % 38 % 60 %
Wind Speed: 16.1 km/h 0.0 km/h 2.2 km/h
Wind Gust: 19.3 km/h - -
Wind:- - SW
Pressure: 1029.3 hPa 1023.9 hPa -
Precipitation: 0.0 mm    
Historical Graphs
 
 
Tabular Data for August 7, 2016
Time Temperature Dew Point Pressure Wind Wind Speed Wind Gust Humidity Rainfall Rate (Hourly)
00:02 15.8 °C 11.4 °C 1029.0 hPa Calm     75 % 0.0 mm
00:07 15.9 °C 11.5 °C 1029.3 hPa Calm     75 % 0.0 mm
00:12 15.9 °C 11.3 °C 1029.0 hPa Calm     74 % 0.0 mm
00:17 15.8 °C 11.4 °C 1029.0 hPa Calm     75 % 0.0 mm
00:27 15.6 °C 11.4 °C 1029.0 hPa Calm     76 % 0.0 mm
00:32 15.5 °C 11.5 °C 1029.0 hPa Calm     77 % 0.0 mm
00:42 15.2 °C 11.2 °C 1029.3 hPa Calm     77 % 0.0 mm
00:52 15.1 °C 11.3 °C 1029.3 hPa Calm     78 % 0.0 mm
01:02 15.1 °C 11.1 °C 1029.3 hPa Calm     77 % 0.0 mm
01:07 15.1 °C 11.3 °C 1029.3 hPa Calm     78 % 0.0 mm
01:12 15.0 °C 11.2 °C 1029.3 hPa Calm     78 % 0.0 mm
01:17 14.9 °C 11.1 °C 1029.3 hPa Calm     78 % 0.0 mm
01:22 14.9 °C 11.1 °C 1029.3 hPa Calm     78 % 0.0 mm
01:32 14.9 °C 11.1 °C 1029.3 hPa Calm     78 % 0.0 mm
01:37 15.0 °C 11.0 °C 1029.3 hPa Calm     77 % 0.0 mm
01:42 14.9 °C 11.1 °C 1029.3 hPa Calm     78 % 0.0 mm
01:52 14.6 °C 11.0 °C 1029.0 hPa Calm     79 % 0.0 mm
01:57 14.5 °C 11.1 °C 1029.0 hPa Calm     80 % 0.0 mm
02:02 14.4 °C 11.0 °C 1029.0 hPa WNW 3.2 km/h 3.2 km/h 80 % 0.0 mm
02:07 14.3 °C 10.9 °C 1029.0 hPa WNW 1.6 km/h 3.2 km/h 80 % 0.0 mm
02:17 14.4 °C 11.0 °C 1029.0 hPa Calm   3.2 km/h 80 % 0.0 mm
02:22 14.6 °C 11.2 °C 1029.0 hPa Calm   3.2 km/h 80 % 0.0 mm
02:32 14.6 °C 11.0 °C 1029.0 hPa Calm     79 % 0.0 mm
02:37 14.6 °C 11.0 °C 1029.0 hPa Calm     79 % 0.0 mm
02:42 14.2 °C 10.6 °C 1029.0 hPa Calm     79 % 0.0 mm
02:47 14.0 °C 10.8 °C 1028.7 hPa Calm     81 % 0.0 mm
02:52 13.8 °C 10.6 °C 1028.7 hPa Calm     81 % 0.0 mm
02:57 13.6 °C 10.6 °C 1028.7 hPa Calm     82 % 0.0 mm
03:02 13.5 °C 10.5 °C 1028.7 hPa Calm     82 % 0.0 mm
03:07 13.6 °C 10.8 °C 1029.0 hPa Calm     83 % 0.0 mm
03:12 13.7 °C 10.9 °C 1029.0 hPa Calm     83 % 0.0 mm
03:17 13.6 °C 10.9 °C 1029.0 hPa Calm     84 % 0.0 mm
03:22 13.6 °C 10.9 °C 1028.7 hPa Calm     84 % 0.0 mm
03:27 13.7 °C 10.9 °C 1028.7 hPa Calm     83 % 0.0 mm
03:32 13.7 °C 10.9 °C 1028.7 hPa Calm     83 % 0.0 mm
03:37 13.5 °C 10.7 °C 1028.7 hPa Calm     83 % 0.0 mm
03:42 13.3 °C 10.5 °C 1028.7 hPa Calm     83 % 0.0 mm
03:47 13.2 °C 10.6 °C 1028.7 hPa Calm     84 % 0.0 mm
03:52 13.1 °C 10.6 °C 1028.7 hPa Calm     85 % 0.0 mm
03:57 13.0 °C 10.5 °C 1028.7 hPa Calm     85 % 0.0 mm
04:02 13.1 °C 10.6 °C 1028.7 hPa Calm     85 % 0.0 mm
04:07 13.0 °C 10.7 °C 1028.7 hPa Calm     86 % 0.0 mm
04:12 13.1 °C 10.8 °C 1028.3 hPa Calm     86 % 0.0 mm
04:17 13.1 °C 10.6 °C 1028.3 hPa Calm     85 % 0.0 mm
04:27 13.1 °C 10.6 °C 1028.3 hPa Calm   1.6 km/h 85 % 0.0 mm
04:32 13.0 °C 10.5 °C 1028.3 hPa Calm   1.6 km/h 85 % 0.0 mm
04:37 12.8 °C 10.3 °C 1028.3 hPa Calm   1.6 km/h 85 % 0.0 mm
04:42 12.8 °C 10.7 °C 1028.3 hPa Calm     87 % 0.0 mm
04:47 13.0 °C 10.7 °C 1028.3 hPa Calm     86 % 0.0 mm
04:52 13.0 °C 10.5 °C 1028.3 hPa Calm     85 % 0.0 mm
04:57 12.8 °C 10.3 °C 1028.3 hPa Calm     85 % 0.0 mm
05:02 12.7 °C 10.4 °C 1028.3 hPa Calm     86 % 0.0 mm
05:12 12.4 °C 10.3 °C 1028.3 hPa Calm     87 % 0.0 mm
05:17 12.3 °C 10.2 °C 1028.3 hPa WNW 1.6 km/h 1.6 km/h 87 % 0.0 mm
05:22 12.4 °C 10.3 °C 1028.3 hPa Calm   1.6 km/h 87 % 0.0 mm
05:27 12.4 °C 10.3 °C 1028.3 hPa Calm   1.6 km/h 87 % 0.0 mm
05:32 12.5 °C 10.4 °C 1028.3 hPa Calm   1.6 km/h 87 % 0.0 mm
05:37 12.6 °C 10.5 °C 1028.3 hPa Calm   1.6 km/h 87 % 0.0 mm
05:42 12.7 °C 10.6 °C 1028.3 hPa Calm   1.6 km/h 87 % 0.0 mm
05:47 12.6 °C 10.5 °C 1028.3 hPa Calm   1.6 km/h 87 % 0.0 mm
05:52 12.5 °C 10.4 °C 1028.3 hPa Calm     87 % 0.0 mm
05:57 12.4 °C 10.3 °C 1028.7 hPa Calm     87 % 0.0 mm
06:02 12.4 °C 10.3 °C 1028.3 hPa Calm     87 % 0.0 mm
06:12 12.2 °C 10.3 °C 1028.7 hPa Calm     88 % 0.0 mm
06:17 12.2 °C 10.3 °C 1028.7 hPa Calm     88 % 0.0 mm
06:22 12.0 °C 10.1 °C 1028.7 hPa Calm     88 % 0.0 mm
06:32 12.0 °C 10.1 °C 1028.7 hPa Calm   1.6 km/h 88 % 0.0 mm
06:37 11.9 °C 10.0 °C 1028.7 hPa Calm   1.6 km/h 88 % 0.0 mm
06:42 11.8 °C 10.0 °C 1028.7 hPa Calm   1.6 km/h 89 % 0.0 mm
06:47 11.9 °C 10.1 °C 1028.7 hPa North 1.6 km/h 1.6 km/h 89 % 0.0 mm
06:52 12.0 °C 10.1 °C 1028.7 hPa NNE 1.6 km/h 1.6 km/h 88 % 0.0 mm
07:02 12.4 °C 10.3 °C 1028.7 hPa NNE 3.2 km/h 4.8 km/h 87 % 0.0 mm
07:07 12.5 °C 10.2 °C 1028.7 hPa North 1.6 km/h 4.8 km/h 86 % 0.0 mm
07:12 12.7 °C 10.4 °C 1028.7 hPa NNW 1.6 km/h 4.8 km/h 86 % 0.0 mm
07:17 12.9 °C 10.4 °C 1028.7 hPa Calm   4.8 km/h 85 % 0.0 mm
07:22 13.1 °C 10.6 °C 1028.7 hPa Calm   3.2 km/h 85 % 0.0 mm
07:27 13.3 °C 10.7 °C 1028.7 hPa Calm   3.2 km/h 84 % 0.0 mm
07:32 13.6 °C 10.9 °C 1028.7 hPa Calm     84 % 0.0 mm
07:37 13.8 °C 11.1 °C 1028.7 hPa Calm     84 % 0.0 mm
07:42 14.3 °C 11.3 °C 1028.7 hPa Calm     82 % 0.0 mm
07:47 14.6 °C 11.6 °C 1028.7 hPa Calm     82 % 0.0 mm
07:52 14.9 °C 11.7 °C 1028.7 hPa Calm     81 % 0.0 mm
07:57 15.1 °C 11.7 °C 1028.7 hPa Calm     80 % 0.0 mm
08:02 15.3 °C 11.7 °C 1028.7 hPa Calm     79 % 0.0 mm
08:12 16.2 °C 12.2 °C 1029.0 hPa Calm     77 % 0.0 mm
08:17 16.6 °C 12.1 °C 1029.0 hPa Calm     75 % 0.0 mm
08:22 16.9 °C 12.2 °C 1029.0 hPa Calm     74 % 0.0 mm
08:27 17.4 °C 12.5 °C 1029.0 hPa Calm     73 % 0.0 mm
08:32 18.0 °C 12.4 °C 1029.0 hPa Calm     70 % 0.0 mm
08:37 18.9 °C 12.9 °C 1029.0 hPa Calm     68 % 0.0 mm
08:42 19.4 °C 12.7 °C 1029.0 hPa Calm     65 % 0.0 mm
08:47 19.3 °C 12.8 °C 1029.0 hPa Calm     66 % 0.0 mm
08:52 19.6 °C 12.8 °C 1029.0 hPa Calm     65 % 0.0 mm
08:57 19.8 °C 12.8 °C 1029.0 hPa Calm     64 % 0.0 mm
09:02 20.2 °C 12.9 °C 1029.0 hPa Calm     63 % 0.0 mm
09:12 20.6 °C 12.8 °C 1029.0 hPa Calm     61 % 0.0 mm
09:22 21.1 °C 13.3 °C 1029.0 hPa Calm     61 % 0.0 mm
09:27 21.3 °C 13.0 °C 1029.0 hPa Calm     59 % 0.0 mm
09:32 21.7 °C 13.1 °C 1029.3 hPa Calm     58 % 0.0 mm
09:37 22.2 °C 13.3 °C 1029.0 hPa Calm     57 % 0.0 mm
09:42 22.6 °C 13.1 °C 1029.0 hPa Calm     55 % 0.0 mm
09:47 22.3 °C 13.1 °C 1029.3 hPa Calm     56 % 0.0 mm
09:52 22.8 °C 13.3 °C 1029.0 hPa Calm     55 % 0.0 mm
09:57 23.1 °C 13.0 °C 1029.0 hPa Calm     53 % 0.0 mm
10:02 23.3 °C 12.9 °C 1029.0 hPa Calm     52 % 0.0 mm
10:07 23.1 °C 12.7 °C 1029.0 hPa Calm     52 % 0.0 mm
10:12 23.3 °C 12.6 °C 1029.0 hPa Calm     51 % 0.0 mm
10:17 23.5 °C 12.8 °C 1029.0 hPa Calm     51 % 0.0 mm
10:22 23.9 °C 12.5 °C 1029.0 hPa Calm     49 % 0.0 mm
10:27 23.7 °C 12.7 °C 1029.3 hPa ENE 4.8 km/h   50 % 0.0 mm
10:32 23.7 °C 12.7 °C 1029.0 hPa WNW 1.6 km/h 6.4 km/h 50 % 0.0 mm
10:37 23.3 °C 12.3 °C 1029.3 hPa WSW 1.6 km/h 6.4 km/h 50 % 0.0 mm
10:42 23.2 °C 12.5 °C 1029.3 hPa Calm   6.4 km/h 51 % 0.0 mm
10:47 23.2 °C 12.2 °C 1029.3 hPa West 3.2 km/h 6.4 km/h 50 % 0.0 mm
10:52 23.3 °C 12.3 °C 1029.0 hPa SE 1.6 km/h 6.4 km/h 50 % 0.0 mm
10:57 23.3 °C 12.3 °C 1029.0 hPa South 6.4 km/h 6.4 km/h 50 % 0.0 mm
11:02 23.6 °C 12.3 °C 1029.0 hPa Calm   8.0 km/h 49 % 0.0 mm
11:07 24.1 °C 12.7 °C 1029.0 hPa North 3.2 km/h 8.0 km/h 49 % 0.0 mm
11:12 24.2 °C 12.5 °C 1029.0 hPa Calm   8.0 km/h 48 % 0.0 mm
11:17 24.0 °C 12.0 °C 1029.0 hPa Calm   11.3 km/h 47 % 0.0 mm
11:22 24.0 °C 12.3 °C 1029.0 hPa Calm   11.3 km/h 48 % 0.0 mm
11:27 23.9 °C 12.2 °C 1028.7 hPa WNW 8.0 km/h 11.3 km/h 48 % 0.0 mm
11:32 23.8 °C 12.1 °C 1028.7 hPa SSE 1.6 km/h 12.9 km/h 48 % 0.0 mm
11:37 24.3 °C 12.3 °C 1028.7 hPa Calm   12.9 km/h 47 % 0.0 mm
11:42 24.6 °C 12.5 °C 1028.7 hPa North 4.8 km/h 12.9 km/h 47 % 0.0 mm
11:47 24.9 °C 12.8 °C 1028.7 hPa NNW 3.2 km/h 12.9 km/h 47 % 0.0 mm
11:52 24.8 °C 12.4 °C 1028.7 hPa WNW 8.0 km/h 12.9 km/h 46 % 0.0 mm
11:57 24.8 °C 13.0 °C 1028.7 hPa NNE 3.2 km/h 12.9 km/h 48 % 0.0 mm
12:02 25.0 °C 12.6 °C 1028.7 hPa NE 9.7 km/h 12.9 km/h 46 % 0.0 mm
12:07 24.9 °C 12.1 °C 1028.7 hPa NNE 6.4 km/h 19.3 km/h 45 % 0.0 mm
12:12 24.7 °C 12.3 °C 1028.7 hPa NW 9.7 km/h 19.3 km/h 46 % 0.0 mm
12:17 24.8 °C 12.1 °C 1028.3 hPa WNW 3.2 km/h 19.3 km/h 45 % 0.0 mm
12:22 24.9 °C 11.8 °C 1028.3 hPa Calm   19.3 km/h 44 % 0.0 mm
12:32 25.1 °C 12.0 °C 1028.3 hPa NE 3.2 km/h 16.1 km/h 44 % 0.0 mm
12:42 25.2 °C 12.4 °C 1028.3 hPa Calm   16.1 km/h 45 % 0.0 mm
12:47 25.8 °C 12.3 °C 1028.3 hPa ENE 8.0 km/h 16.1 km/h 43 % 0.0 mm
12:52 25.7 °C 11.8 °C 1028.3 hPa NE 4.8 km/h 16.1 km/h 42 % 0.0 mm
12:57 25.5 °C 12.0 °C 1028.0 hPa NE 4.8 km/h 12.9 km/h 43 % 0.0 mm
13:02 25.6 °C 12.4 °C 1028.0 hPa NE 6.4 km/h 14.5 km/h 44 % 0.0 mm
13:07 25.8 °C 12.3 °C 1028.0 hPa WNW 8.0 km/h 16.1 km/h 43 % 0.0 mm
13:12 25.8 °C 12.3 °C 1028.0 hPa NNE 9.7 km/h 16.1 km/h 43 % 0.0 mm
13:17 25.9 °C 12.4 °C 1027.7 hPa NNW 4.8 km/h 19.3 km/h 43 % 0.0 mm
13:22 25.7 °C 12.2 °C 1027.7 hPa North 1.6 km/h 19.3 km/h 43 % 0.0 mm
13:27 25.9 °C 12.7 °C 1027.7 hPa ENE 6.4 km/h 19.3 km/h 44 % 0.0 mm
13:32 26.2 °C 12.6 °C 1027.7 hPa ENE 6.4 km/h 14.5 km/h 43 % 0.0 mm
13:37 26.1 °C 12.5 °C 1027.7 hPa NW 1.6 km/h 12.9 km/h 43 % 0.0 mm
13:42 26.4 °C 12.5 °C 1027.3 hPa NNE 6.4 km/h 16.1 km/h 42 % 0.0 mm
13:47 26.5 °C 11.8 °C 1027.3 hPa NE 4.8 km/h 16.1 km/h 40 % 0.0 mm
13:52 26.3 °C 12.0 °C 1027.3 hPa WNW 3.2 km/h 16.1 km/h 41 % 0.0 mm
13:57 26.4 °C 12.1 °C 1027.3 hPa NE 16.1 km/h 16.1 km/h 41 % 0.0 mm
14:02 26.5 °C 12.5 °C 1027.3 hPa Calm   17.7 km/h 42 % 0.0 mm
14:07 26.6 °C 12.3 °C 1027.3 hPa NE 8.0 km/h 17.7 km/h 41 % 0.0 mm
14:12 26.6 °C 12.3 °C 1027.0 hPa Calm   19.3 km/h 41 % 0.0 mm
14:17 26.9 °C 12.2 °C 1027.0 hPa NE 4.8 km/h 19.3 km/h 40 % 0.0 mm
14:22 27.2 °C 12.4 °C 1027.0 hPa NE 6.4 km/h 16.1 km/h 40 % 0.0 mm
14:27 27.0 °C 12.6 °C 1027.0 hPa North 12.9 km/h 16.1 km/h 41 % 0.0 mm
14:32 26.8 °C 12.4 °C 1027.0 hPa Calm   16.1 km/h 41 % 0.0 mm
14:37 26.8 °C 12.4 °C 1027.0 hPa Calm   16.1 km/h 41 % 0.0 mm
14:42 27.3 °C 12.5 °C 1027.0 hPa Calm   12.9 km/h 40 % 0.0 mm
14:47 27.8 °C 13.0 °C 1027.0 hPa NE 9.7 km/h 9.7 km/h 40 % 0.0 mm
14:52 27.8 °C 13.0 °C 1026.6 hPa NW 3.2 km/h 14.5 km/h 40 % 0.0 mm
14:57 27.8 °C 12.6 °C 1027.0 hPa NNE 6.4 km/h 14.5 km/h 39 % 0.0 mm
15:02 27.5 °C 12.3 °C 1026.6 hPa SSW 1.6 km/h 14.5 km/h 39 % 0.0 mm
15:07 27.6 °C 12.4 °C 1026.6 hPa NNW 8.0 km/h 12.9 km/h 39 % 0.0 mm
15:12 27.3 °C 12.1 °C 1026.6 hPa East 1.6 km/h 16.1 km/h 39 % 0.0 mm
15:17 27.5 °C 12.3 °C 1026.6 hPa NNW 3.2 km/h 16.1 km/h 39 % 0.0 mm
15:22 27.8 °C 13.0 °C 1026.3 hPa NE 6.4 km/h 16.1 km/h 40 % 0.0 mm
15:32 27.8 °C 12.2 °C 1026.3 hPa NE 3.2 km/h 11.3 km/h 38 % 0.0 mm
15:37 27.8 °C 12.6 °C 1026.3 hPa ENE 4.8 km/h 11.3 km/h 39 % 0.0 mm
15:42 28.0 °C 13.1 °C 1026.0 hPa North 14.5 km/h 14.5 km/h 40 % 0.0 mm
15:47 28.2 °C 12.9 °C 1026.3 hPa NNW 1.6 km/h 19.3 km/h 39 % 0.0 mm
15:52 28.3 °C 13.0 °C 1026.0 hPa ENE 1.6 km/h 19.3 km/h 39 % 0.0 mm
15:57 28.2 °C 12.5 °C 1026.0 hPa NW 6.4 km/h 19.3 km/h 38 % 0.0 mm
16:02 28.3 °C 13.0 °C 1026.0 hPa ENE 4.8 km/h 12.9 km/h 39 % 0.0 mm
16:07 28.4 °C 12.7 °C 1026.0 hPa NE 9.7 km/h 12.9 km/h 38 % 0.0 mm
16:12 28.3 °C 13.0 °C 1026.0 hPa North 3.2 km/h 19.3 km/h 39 % 0.0 mm
16:17 28.5 °C 13.2 °C 1025.6 hPa NNE 3.2 km/h 19.3 km/h 39 % 0.0 mm
16:22 28.6 °C 13.7 °C 1025.6 hPa NNW 3.2 km/h 19.3 km/h 40 % 0.0 mm
16:27 28.6 °C 13.3 °C 1025.6 hPa NW 3.2 km/h 19.3 km/h 39 % 0.0 mm
16:32 28.4 °C 13.1 °C 1025.6 hPa NNE 9.7 km/h 19.3 km/h 39 % 0.0 mm
16:37 28.3 °C 13.0 °C 1025.6 hPa Calm   16.1 km/h 39 % 0.0 mm
16:42 28.4 °C 13.1 °C 1025.3 hPa NW 6.4 km/h 16.1 km/h 39 % 0.0 mm
16:47 28.2 °C 13.3 °C 1025.3 hPa WNW 8.0 km/h 16.1 km/h 40 % 0.0 mm
16:52 28.4 °C 13.1 °C 1025.3 hPa NNE 6.4 km/h 16.1 km/h 39 % 0.0 mm
16:57 28.6 °C 13.7 °C 1025.3 hPa Calm   16.1 km/h 40 % 0.0 mm
17:02 29.0 °C 13.6 °C 1025.3 hPa NW 3.2 km/h 11.3 km/h 39 % 0.0 mm
17:07 29.1 °C 13.3 °C 1025.3 hPa Calm   11.3 km/h 38 % 0.0 mm
17:12 29.0 °C 13.2 °C 1025.3 hPa WNW 3.2 km/h 9.7 km/h 38 % 0.0 mm
17:17 29.0 °C 13.6 °C 1025.3 hPa West 9.7 km/h 11.3 km/h 39 % 0.0 mm
17:22 29.2 °C 13.8 °C 1025.3 hPa WNW 1.6 km/h 11.3 km/h 39 % 0.0 mm
17:27 29.0 °C 13.6 °C 1025.3 hPa WNW 6.4 km/h 12.9 km/h 39 % 0.0 mm
17:32 28.8 °C 13.9 °C 1024.9 hPa West 3.2 km/h 14.5 km/h 40 % 0.0 mm
17:37 28.9 °C 13.9 °C 1024.9 hPa NE 4.8 km/h 14.5 km/h 40 % 0.0 mm
17:42 28.9 °C 13.6 °C 1024.9 hPa NNE 8.0 km/h 14.5 km/h 39 % 0.0 mm
17:52 29.2 °C 13.8 °C 1024.9 hPa NNW 6.4 km/h 12.9 km/h 39 % 0.0 mm
17:57 29.1 °C 14.1 °C 1024.9 hPa WNW 11.3 km/h 11.3 km/h 40 % 0.0 mm
18:02 29.3 °C 14.3 °C 1024.9 hPa Calm   11.3 km/h 40 % 0.0 mm
18:07 29.2 °C 14.2 °C 1024.9 hPa NNE 3.2 km/h 11.3 km/h 40 % 0.0 mm
18:12 29.2 °C 14.2 °C 1024.9 hPa WNW 3.2 km/h 14.5 km/h 40 % 0.0 mm
18:17 29.1 °C 14.1 °C 1024.9 hPa NNE 11.3 km/h 14.5 km/h 40 % 0.0 mm
18:22 28.9 °C 14.3 °C 1024.9 hPa NNE 8.0 km/h 14.5 km/h 41 % 0.0 mm
18:27 28.9 °C 14.3 °C 1024.6 hPa Calm   12.9 km/h 41 % 0.0 mm
18:32 29.1 °C 14.5 °C 1024.6 hPa NNE 1.6 km/h 12.9 km/h 41 % 0.0 mm
18:42 29.0 °C 14.4 °C 1024.6 hPa NNW 6.4 km/h 14.5 km/h 41 % 0.0 mm
18:47 28.9 °C 14.3 °C 1024.6 hPa WNW 6.4 km/h 14.5 km/h 41 % 0.0 mm
18:52 29.1 °C 14.5 °C 1024.6 hPa North 6.4 km/h 11.3 km/h 41 % 0.0 mm
19:02 28.7 °C 14.1 °C 1024.6 hPa NNE 4.8 km/h 14.5 km/h 41 % 0.0 mm
19:07 28.7 °C 14.5 °C 1024.6 hPa NNW 3.2 km/h 14.5 km/h 42 % 0.0 mm
19:12 29.1 °C 14.5 °C 1024.3 hPa WNW 8.0 km/h 14.5 km/h 41 % 0.0 mm
19:17 29.1 °C 14.5 °C 1024.3 hPa SW 4.8 km/h 9.7 km/h 41 % 0.0 mm
19:22 29.0 °C 14.8 °C 1024.3 hPa NW 4.8 km/h 9.7 km/h 42 % 0.0 mm
19:27 28.8 °C 14.6 °C 1024.3 hPa WNW 6.4 km/h 9.7 km/h 42 % 0.0 mm
19:32 28.7 °C 14.5 °C 1024.3 hPa WNW 4.8 km/h 9.7 km/h 42 % 0.0 mm
19:42 28.5 °C 14.3 °C 1024.3 hPa Calm   12.9 km/h 42 % 0.0 mm
19:47 28.7 °C 14.9 °C 1024.3 hPa North 8.0 km/h 12.9 km/h 43 % 0.0 mm
19:52 28.4 °C 14.6 °C 1024.3 hPa NNW 6.4 km/h 9.7 km/h 43 % 0.0 mm
19:57 28.4 °C 14.6 °C 1024.3 hPa North 1.6 km/h 9.7 km/h 43 % 0.0 mm
20:02 28.4 °C 14.6 °C 1024.3 hPa NNW 1.6 km/h 9.7 km/h 43 % 0.0 mm
20:07 28.4 °C 15.0 °C 1024.3 hPa NNW 3.2 km/h 9.7 km/h 44 % 0.0 mm
20:12 28.4 °C 15.0 °C 1024.3 hPa NNW 6.4 km/h 6.4 km/h 44 % 0.0 mm
20:17 28.4 °C 15.0 °C 1024.3 hPa NW 3.2 km/h 8.0 km/h 44 % 0.0 mm
20:22 28.2 °C 15.1 °C 1024.3 hPa NW 3.2 km/h 9.7 km/h 45 % 0.0 mm
20:27 28.1 °C 15.0 °C 1024.3 hPa WNW 3.2 km/h 9.7 km/h 45 % 0.0 mm
20:32 27.9 °C 14.9 °C 1024.3 hPa NNW 3.2 km/h 9.7 km/h 45 % 0.0 mm
20:37 27.8 °C 15.1 °C 1024.3 hPa WNW 1.6 km/h 8.0 km/h 46 % 0.0 mm
20:42 27.6 °C 14.9 °C 1024.3 hPa NNW 4.8 km/h 8.0 km/h 46 % 0.0 mm
20:47 27.3 °C 15.0 °C 1024.3 hPa WNW 3.2 km/h 6.4 km/h 47 % 0.0 mm
20:52 27.0 °C 15.1 °C 1024.3 hPa WNW 3.2 km/h 6.4 km/h 48 % 0.0 mm
20:57 26.7 °C 15.1 °C 1024.3 hPa Calm   6.4 km/h 49 % 0.0 mm
21:02 26.3 °C 14.7 °C 1024.3 hPa NW 1.6 km/h 6.4 km/h 49 % 0.0 mm
21:07 25.8 °C 14.9 °C 1023.9 hPa NW 1.6 km/h 4.8 km/h 51 % 0.0 mm
21:12 25.5 °C 14.9 °C 1024.3 hPa NW 1.6 km/h 3.2 km/h 52 % 0.0 mm
21:17 25.2 °C 14.9 °C 1024.3 hPa NNW 1.6 km/h 3.2 km/h 53 % 0.0 mm
21:22 25.0 °C 15.0 °C 1024.3 hPa NNW 1.6 km/h 6.4 km/h 54 % 0.0 mm
21:27 24.8 °C 15.1 °C 1024.3 hPa NW 3.2 km/h 6.4 km/h 55 % 0.0 mm
21:32 24.6 °C 15.0 °C 1024.3 hPa NNW 3.2 km/h 4.8 km/h 55 % 0.0 mm
21:37 24.4 °C 15.1 °C 1024.3 hPa NNW 1.6 km/h 3.2 km/h 56 % 0.0 mm
21:42 24.3 °C 15.2 °C 1024.3 hPa NNW 3.2 km/h 4.8 km/h 57 % 0.0 mm
21:52 23.8 °C 15.3 °C 1024.3 hPa NNW 3.2 km/h 4.8 km/h 59 % 0.0 mm
21:57 23.6 °C 15.1 °C 1024.3 hPa NNW 3.2 km/h 3.2 km/h 59 % 0.0 mm
22:02 23.4 °C 15.2 °C 1024.3 hPa NNW 1.6 km/h 3.2 km/h 60 % 0.0 mm
22:07 23.3 °C 15.4 °C 1024.3 hPa NNW 1.6 km/h 3.2 km/h 61 % 0.0 mm
22:12 23.2 °C 15.3 °C 1024.3 hPa NW 1.6 km/h 3.2 km/h 61 % 0.0 mm
22:17 23.1 °C 15.2 °C 1024.3 hPa Calm   3.2 km/h 61 % 0.0 mm
22:22 22.6 °C 14.9 °C 1024.3 hPa Calm   3.2 km/h 62 % 0.0 mm
22:32 22.2 °C 15.1 °C 1024.3 hPa Calm   1.6 km/h 64 % 0.0 mm
22:37 21.9 °C 15.0 °C 1024.3 hPa Calm     65 % 0.0 mm
22:42 21.6 °C 15.2 °C 1024.3 hPa Calm     67 % 0.0 mm
22:47 21.4 °C 15.2 °C 1024.3 hPa Calm     68 % 0.0 mm
22:57 21.1 °C 15.2 °C 1024.3 hPa Calm     69 % 0.0 mm
23:02 20.9 °C 15.0 °C 1024.3 hPa Calm     69 % 0.0 mm
23:07 20.8 °C 15.1 °C 1024.3 hPa Calm     70 % 0.0 mm
23:12 20.7 °C 15.0 °C 1024.3 hPa Calm     70 % 0.0 mm
23:17 20.7 °C 15.0 °C 1024.3 hPa Calm     70 % 0.0 mm
23:22 20.5 °C 15.1 °C 1024.3 hPa Calm     71 % 0.0 mm
23:27 20.2 °C 15.0 °C 1024.3 hPa Calm     72 % 0.0 mm
23:32 20.1 °C 15.1 °C 1024.3 hPa Calm     73 % 0.0 mm
23:37 20.0 °C 15.0 °C 1024.3 hPa Calm     73 % 0.0 mm
23:42 19.9 °C 14.9 °C 1024.3 hPa Calm     73 % 0.0 mm
23:47 19.9 °C 15.1 °C 1024.3 hPa Calm     74 % 0.0 mm
23:52 19.8 °C 15.0 °C 1024.3 hPa Calm     74 % 0.0 mm
23:57 19.7 °C 14.9 °C 1024.3 hPa Calm     74 % 0.0 mm
Meteo18
Compliments of Weather Underground - 4 mb

Script developed by  Jim McMurry - jmcmurry@mwt.net Adapted for the template by  Wim van der Kuil - Leuven-Template.eu

You find our weather info also at:

European Weather Network

Weather Underground

Equipment we use:

Weather-station
Davis Vue

Weather-program
Meteohub

Weather-server
Raspberry PI 2 B+

Provider
1 and 1

Davis Vue

Meteohub

Raspberry PI 2 B+

1 and 1